Logo AVAMET
Benvolgut visitant, si us plau, ingressa Recuperar contrasenya
AVAMET paisatges

Inforatge Pedreguer Centre

Dades diàries. Acumulats / Últims 30 dies disponibles

Data Temperatura (°C) Humitat rel. (%) Pressió rel. (hPa) Vent (km/h) Precipitació
Mínima Mitjana Màxima Amplitud
tèrmica
Mínima Mitjana Màxima Mínima Mitjana Màxima Predom. Mitjana Ràfega
màxima
Total
(mm)
Índex-n
Mínima Mitjana Màxima Mínima Mitjana Màxima n
0 a 1
P0 max
mm 5'
Dades mensuals acumulades fins l'últim dia disponible
08/2020 23,4 24,4 25,6 27,7 28,3 32,0 38,8 15,4 33 77 93 1.013 1.015 1.018   7,9 43,5 1,8
Dades anuals acumulades fins l'últim dia disponible
2020 4,3 15,0 25,6 18,7 10,8 22,9 38,8 34,5 18 72 98 1.003 1.020 1.036   6,4 91,7 283,2
Últims 30 dies disponibles
05-08-2020 23,6     26,3     29,9 6,3 65 77 87 1.014 1.015 1.016 SE 10,6 43,5 0,0
04-08-2020 23,4     26,6     30,1 6,7 65 79 91 1.014 1.016 1.017 SE 9,2 33,8 0,0
03-08-2020 25,1     26,5     28,3 3,2 72 82 90 1.013 1.014 1.016 ESE 5,5 32,2 1,8 0,23 0,60
02-08-2020 25,6     28,2     32,8 7,2 57 79 91 1.014 1.016 1.018 NW 8,0 35,4 0,0
01-08-2020 24,3     30,7     38,8 14,5 33 70 93 1.013 1.016 1.018 ENE 6,3 30,6 0,0
31-07-2020 24,2     29,1     34,2 10,0 52 63 86 1.015 1.017 1.018 SSO 6,6 27,4 0,0
30-07-2020 24,1     27,1     30,8 6,7 58 73 87 1.016 1.018 1.019 W 7,2 22,5 0,0
29-07-2020 25,1     27,0     29,7 4,6 70 81 89 1.016 1.017 1.019 NW 10,1 30,6 0,0
28-07-2020 24,3     27,9     30,7 6,4 31 71 86 1.015 1.016 1.018 NW 4,7 24,1 0,0
27-07-2020 23,5     28,2     34,3 10,8 29 64 89 1.016 1.018 1.020 WSW 7,6 33,8 0,0
26-07-2020 22,7     26,8     31,9 9,2 51 72 82 1.016 1.017 1.019 ENE 5,0 25,7 0,0
25-07-2020 23,3     27,3     32,4 9,1 40 65 81 1.015 1.016 1.018 SE 7,1 33,8 0,0
24-07-2020 23,0     27,6     32,7 9,7 41 56 72 1.014 1.015 1.017 SE 6,6 37,0 0,0
23-07-2020 23,4     28,1     33,2 9,8 32 55 81 1.015 1.017 1.019 WSW 7,2 32,2 0,0
22-07-2020 23,7     25,9     28,7 5,0 65 79 89 1.018 1.020 1.022 W 7,9 27,4 0,0
21-07-2020 22,4     25,6     29,3 6,9 65 80 90 1.019 1.020 1.021 WSW 6,8 25,7 0,0
20-07-2020 23,1     26,5     31,7 8,6 46 70 83 1.017 1.018 1.021 SE 6,6 32,2 0,0
19-07-2020 21,9     26,7     32,3 10,4 41 67 86 1.015 1.017 1.018 SSW 9,8 45,1 0,0
18-07-2020 21,8     25,4     29,4 7,6 56 75 87 1.015 1.017 1.019 SE 9,5 40,2 0,0
17-07-2020 21,4     24,9     28,5 7,1 63 75 83 1.016 1.018 1.019 SE 9,5 43,5 0,0
16-07-2020 21,4     25,3     29,2 7,8 56 67 82 1.018 1.020 1.022 SE 7,6 33,8 0,0
15-07-2020 19,9     24,7     29,8 9,9 39 71 89 1.017 1.019 1.020 SE 6,4 30,6 0,0
14-07-2020 22,2     24,8     29,2 7,0 54 76 89 1.016 1.018 1.020 WSW 6,3 29,0 1,6 0,20
13-07-2020 22,8     25,7     28,6 5,8 62 74 85 1.019 1.020 1.022 NNW 6,1 25,7 0,0
12-07-2020 23,1     25,6     30,1 7,0 59 77 87 1.018 1.020 1.022 ENE 7,4 35,4 0,4
11-07-2020 23,4     25,5     28,2 4,8 69 79 87 1.017 1.019 1.021 W 9,2 30,6 0,0
10-07-2020 23,3     25,9     29,7 6,4 56 77 87 1.015 1.017 1.019 W 7,6 27,4 0,0
09-07-2020 24,0     26,7     29,5 5,5 42 66 86 1.016 1.018 1.020 SE 7,4 35,4 0,0
08-07-2020 22,2     26,1     30,4 8,2 47 73 89 1.018 1.018 1.020 ENE 6,0 33,8 0,0
07-07-2020 23,2     27,4     32,2 9,0 44 61 81 1.015 1.017 1.018 SE 6,3 35,4 0,0
Últims 13 mesos disponibles
07/2020 19,9 22,8 25,1 26,5 28,2 30,7 35,2 15,3 55 71 83 1.013 1.018 1.022 SE 7,5 45,1 2,0
06/2020 15,4 19,4 22,7 23,6 21,2 28,3 32,1 16,7 44 69 86 1.007 1.016 1.023 SE 7,1 59,5 38,0
05/2020 13,7 17,0 20,1 21,3 19,6 26,1 31,2 17,5 47 67 84 1.007 1.018 1.029 SE 6,6 48,3 16,8
04/2020 9,3 12,9 19,2 15,9 14,3 19,6 26,7 17,4 47 76 94 1.007 1.017 1.027 W 6,3 49,9 44,2
03/2020 7,4 11,4 17,3 14,5 10,8 18,0 26,1 18,7 44 72 94 1.009 1.018 1.028 W 8,6 91,7 63,6
02/2020 7,2 11,1 15,9 15,4 14,2 20,5 27,1 19,9 35 69 89 1.015 1.027 1.034 ESE 4,1 43,5 6,0
01/2020 4,3 8,7 15,3 12,0 12,3 15,8 22,1 17,8 52 76 95 1.016 1.026 1.033 WSW 4,6 83,7 110,8
12/2019 7,5 11,4 17,7 14,4 13,2 17,9 24,4 16,9 49 71 92 1.005 1.020 1.034 W 6,3 78,9 160,0
11/2019 7,9 12,9 21,8 15,9 14,3 19,5 26,9 19,0 44 57 79 1.000 1.013 1.020 W 10,5 70,8 4,4
10/2019 10,7 16,8 20,6 20,7 16,4 24,7 31,8 21,1 46 70 87 1.010 1.018 1.023 SE 4,6 56,3 79,0
09/2019 14,0 20,2 23,3 23,7 22,9 27,4 34,3 20,3 54 77 95 1.012 1.019 1.025 SSE 5,7 83,7 177,6
08/2019 19,2 22,8 26,5 26,9 26,4 31,4 38,0 18,8 51 71 83 1.012 1.017 1.022 SSE 6,7 46,7 69,8
07/2019 21,5 23,1 27,9 27,2 27,9 32,1 39,6 18,1 45 65 80 1.008 1.016 1.023 SSE 6,9 66,7 1,2
Tots els anys disponibles
2019 4,7 15,1 27,9 18,8 10,8 23,0 39,6 34,9 36 66 95 997 1.018 1.035 SSE 6,8 83,7 847,8
2018 3,8 15,3 27,4 18,9 7,7 23,0 37,2 33,4 37 68 93 999 1.018 1.032 SSE 6,6 82,0 590,6
2017 4,7 12,6 19,2 16,2 11,6 20,3 28,9 24,2 60 60 60 1.015 1.015 1.015 5,3 72,2 56,0
Temperatura (°C)
Humitat relativa (%)
Velocitat del vent i ràfega màxima (km/h)
Direcció del vent (°)
Pressió (hPa)
Precipitació (mm)
Nota sobre les dades: s'avisa a l'usuari de la provisionalitat i no oficialitat d'aquestes dades
Logo AVAMET blanc
Web allotjada a Sollutia
Llicència de Creative CommonsLa web d'AVAMET i els seus continguts estan subjectes a una llicència de
Reconeixement - No Comercial - Compartir igual
Últimes estacions: Torremocha del Jiloca (Limítrofe/Soci), Orihuela - Arneva (MeteOrihuela), Enguera - Antolí (Soci), Vilamarxant - La Pedrera (Soci), Càlig (Ajuntament Soci), Quesa - Hotel La Rocha (Soci), Agres - Les Eres (Soci) - - -